sensor_id;sensor_type;location;lat;lon;timestamp;temperature;humidity
7388;DHT22;3735;50.136;11.062;2023-06-22T00:02:14;17.30;99.90
7388;DHT22;3735;50.136;11.062;2023-06-22T00:04:40;17.30;99.90
7388;DHT22;3735;50.136;11.062;2023-06-22T00:07:05;17.30;99.90
7388;DHT22;3735;50.136;11.062;2023-06-22T00:09:31;17.40;99.90
7388;DHT22;3735;50.136;11.062;2023-06-22T00:11:57;17.40;99.90
7388;DHT22;3735;50.136;11.062;2023-06-22T00:14:23;17.50;99.90
7388;DHT22;3735;50.136;11.062;2023-06-22T00:16:49;17.50;99.90
7388;DHT22;3735;50.136;11.062;2023-06-22T00:19:20;17.50;99.90
7388;DHT22;3735;50.136;11.062;2023-06-22T00:21:47;17.50;99.90
7388;DHT22;3735;50.136;11.062;2023-06-22T00:24:18;17.50;99.90
7388;DHT22;3735;50.136;11.062;2023-06-22T00:26:45;17.50;99.90
7388;DHT22;3735;50.136;11.062;2023-06-22T00:29:11;17.50;99.90
7388;DHT22;3735;50.136;11.062;2023-06-22T00:31:36;17.50;99.90
7388;DHT22;3735;50.136;11.062;2023-06-22T00:34:02;17.50;99.90
7388;DHT22;3735;50.136;11.062;2023-06-22T00:36:28;17.40;99.90
7388;DHT22;3735;50.136;11.062;2023-06-22T00:38:54;17.40;99.90
7388;DHT22;3735;50.136;11.062;2023-06-22T00:41:19;17.40;99.90
7388;DHT22;3735;50.136;11.062;2023-06-22T00:43:45;17.30;99.90
7388;DHT22;3735;50.136;11.062;2023-06-22T00:46:11;17.20;99.90
7388;DHT22;3735;50.136;11.062;2023-06-22T00:48:38;17.10;99.90
7388;DHT22;3735;50.136;11.062;2023-06-22T00:51:05;17.00;99.90
7388;DHT22;3735;50.136;11.062;2023-06-22T00:53:31;17.10;99.90
7388;DHT22;3735;50.136;11.062;2023-06-22T00:56:00;17.00;99.90
7388;DHT22;3735;50.136;11.062;2023-06-22T00:58:28;17.00;99.90
7388;DHT22;3735;50.136;11.062;2023-06-22T01:00:55;17.00;99.90
7388;DHT22;3735;50.136;11.062;2023-06-22T01:03:20;17.00;99.90
7388;DHT22;3735;50.136;11.062;2023-06-22T01:05:47;17.00;99.90
7388;DHT22;3735;50.136;11.062;2023-06-22T01:08:28;17.10;99.90
7388;DHT22;3735;50.136;11.062;2023-06-22T01:11:26;17.20;99.90
7388;DHT22;3735;50.136;11.062;2023-06-22T01:16:40;17.40;99.90
7388;DHT22;3735;50.136;11.062;2023-06-22T01:22:23;17.40;99.90
7388;DHT22;3735;50.136;11.062;2023-06-22T01:24:55;17.50;99.90
7388;DHT22;3735;50.136;11.062;2023-06-22T01:27:46;17.50;99.90
7388;DHT22;3735;50.136;11.062;2023-06-22T01:30:14;17.50;99.90
7388;DHT22;3735;50.136;11.062;2023-06-22T01:32:42;17.60;99.90
7388;DHT22;3735;50.136;11.062;2023-06-22T01:35:10;17.50;99.90
7388;DHT22;3735;50.136;11.062;2023-06-22T01:37:38;17.50;99.90
7388;DHT22;3735;50.136;11.062;2023-06-22T01:40:06;17.50;99.90
7388;DHT22;3735;50.136;11.062;2023-06-22T01:42:34;17.50;99.90
7388;DHT22;3735;50.136;11.062;2023-06-22T01:45:02;17.40;99.90
7388;DHT22;3735;50.136;11.062;2023-06-22T01:47:28;17.30;99.90
7388;DHT22;3735;50.136;11.062;2023-06-22T01:49:55;17.30;99.90
7388;DHT22;3735;50.136;11.062;2023-06-22T01:52:21;17.20;99.90
7388;DHT22;3735;50.136;11.062;2023-06-22T01:54:47;17.20;99.90
7388;DHT22;3735;50.136;11.062;2023-06-22T01:57:16;17.20;99.90
7388;DHT22;3735;50.136;11.062;2023-06-22T02:00:03;17.30;99.90
7388;DHT22;3735;50.136;11.062;2023-06-22T02:02:53;17.30;99.90
7388;DHT22;3735;50.136;11.062;2023-06-22T02:05:28;17.30;99.90
7388;DHT22;3735;50.136;11.062;2023-06-22T02:08:19;17.20;99.90
7388;DHT22;3735;50.136;11.062;2023-06-22T02:10:49;17.20;99.90
7388;DHT22;3735;50.136;11.062;2023-06-22T02:13:17;17.20;99.90
7388;DHT22;3735;50.136;11.062;2023-06-22T02:15:45;17.20;99.90
7388;DHT22;3735;50.136;11.062;2023-06-22T02:18:13;17.20;99.90
7388;DHT22;3735;50.136;11.062;2023-06-22T02:20:39;17.20;99.90
7388;DHT22;3735;50.136;11.062;2023-06-22T02:23:06;17.20;99.90
7388;DHT22;3735;50.136;11.062;2023-06-22T02:25:33;17.20;99.90
7388;DHT22;3735;50.136;11.062;2023-06-22T02:28:00;17.20;99.90
7388;DHT22;3735;50.136;11.062;2023-06-22T02:30:26;17.20;99.90
7388;DHT22;3735;50.136;11.062;2023-06-22T02:32:51;17.20;99.90
7388;DHT22;3735;50.136;11.062;2023-06-22T02:35:27;17.20;99.90
7388;DHT22;3735;50.136;11.062;2023-06-22T02:38:00;17.10;99.90
7388;DHT22;3735;50.136;11.062;2023-06-22T02:40:27;17.10;99.90
7388;DHT22;3735;50.136;11.062;2023-06-22T02:42:53;17.10;99.90
7388;DHT22;3735;50.136;11.062;2023-06-22T02:45:19;17.10;99.90
7388;DHT22;3735;50.136;11.062;2023-06-22T02:47:45;17.10;99.90
7388;DHT22;3735;50.136;11.062;2023-06-22T02:50:10;17.10;99.90
7388;DHT22;3735;50.136;11.062;2023-06-22T02:52:36;17.10;99.90
7388;DHT22;3735;50.136;11.062;2023-06-22T02:55:05;17.20;99.90
7388;DHT22;3735;50.136;11.062;2023-06-22T02:57:32;17.40;99.90
7388;DHT22;3735;50.136;11.062;2023-06-22T02:59:59;17.50;99.90
7388;DHT22;3735;50.136;11.062;2023-06-22T03:02:25;17.70;99.90
7388;DHT22;3735;50.136;11.062;2023-06-22T03:04:52;17.70;99.90
7388;DHT22;3735;50.136;11.062;2023-06-22T03:07:19;17.80;99.90
7388;DHT22;3735;50.136;11.062;2023-06-22T03:09:45;17.90;99.90
7388;DHT22;3735;50.136;11.062;2023-06-22T03:12:11;18.00;99.90
7388;DHT22;3735;50.136;11.062;2023-06-22T03:14:37;18.20;99.90
7388;DHT22;3735;50.136;11.062;2023-06-22T03:17:04;18.20;99.90
7388;DHT22;3735;50.136;11.062;2023-06-22T03:19:30;18.30;99.90
7388;DHT22;3735;50.136;11.062;2023-06-22T03:22:00;18.30;99.90
7388;DHT22;3735;50.136;11.062;2023-06-22T03:24:29;18.30;99.90
7388;DHT22;3735;50.136;11.062;2023-06-22T03:26:55;18.30;99.90
7388;DHT22;3735;50.136;11.062;2023-06-22T03:29:22;18.40;99.90
7388;DHT22;3735;50.136;11.062;2023-06-22T03:31:49;18.40;99.90
7388;DHT22;3735;50.136;11.062;2023-06-22T03:34:14;18.30;99.90
7388;DHT22;3735;50.136;11.062;2023-06-22T03:36:40;18.30;99.90
7388;DHT22;3735;50.136;11.062;2023-06-22T03:39:06;18.30;99.90
7388;DHT22;3735;50.136;11.062;2023-06-22T03:41:32;18.30;99.90
7388;DHT22;3735;50.136;11.062;2023-06-22T03:43:57;18.30;99.90
7388;DHT22;3735;50.136;11.062;2023-06-22T03:46:23;18.40;99.90
7388;DHT22;3735;50.136;11.062;2023-06-22T03:48:49;18.50;99.90
7388;DHT22;3735;50.136;11.062;2023-06-22T03:51:15;18.60;99.90
7388;DHT22;3735;50.136;11.062;2023-06-22T03:53:40;18.60;99.90
7388;DHT22;3735;50.136;11.062;2023-06-22T03:56:06;18.50;99.90
7388;DHT22;3735;50.136;11.062;2023-06-22T03:58:32;18.50;99.90
7388;DHT22;3735;50.136;11.062;2023-06-22T04:00:59;18.50;99.90
7388;DHT22;3735;50.136;11.062;2023-06-22T04:03:25;18.50;99.90
7388;DHT22;3735;50.136;11.062;2023-06-22T04:05:51;18.50;99.90
7388;DHT22;3735;50.136;11.062;2023-06-22T04:08:18;18.50;99.90
7388;DHT22;3735;50.136;11.062;2023-06-22T04:10:43;18.50;99.90
7388;DHT22;3735;50.136;11.062;2023-06-22T04:13:10;18.50;99.90
7388;DHT22;3735;50.136;11.062;2023-06-22T04:15:36;18.60;99.90
7388;DHT22;3735;50.136;11.062;2023-06-22T04:18:02;18.60;99.90
7388;DHT22;3735;50.136;11.062;2023-06-22T04:20:28;18.60;99.90
7388;DHT22;3735;50.136;11.062;2023-06-22T04:22:54;18.70;99.90
7388;DHT22;3735;50.136;11.062;2023-06-22T04:25:20;18.70;99.90
7388;DHT22;3735;50.136;11.062;2023-06-22T04:27:47;18.80;99.90
7388;DHT22;3735;50.136;11.062;2023-06-22T04:30:14;18.90;99.90
7388;DHT22;3735;50.136;11.062;2023-06-22T04:32:43;19.00;99.90
7388;DHT22;3735;50.136;11.062;2023-06-22T04:35:11;19.10;99.90
7388;DHT22;3735;50.136;11.062;2023-06-22T04:37:37;19.30;99.90
7388;DHT22;3735;50.136;11.062;2023-06-22T04:40:05;19.40;99.90
7388;DHT22;3735;50.136;11.062;2023-06-22T04:42:34;19.50;99.90
7388;DHT22;3735;50.136;11.062;2023-06-22T04:47:36;19.90;99.90
7388;DHT22;3735;50.136;11.062;2023-06-22T04:50:04;20.30;99.90
7388;DHT22;3735;50.136;11.062;2023-06-22T04:52:31;20.70;99.90
7388;DHT22;3735;50.136;11.062;2023-06-22T04:54:56;21.20;99.90
7388;DHT22;3735;50.136;11.062;2023-06-22T04:57:25;21.60;99.90
7388;DHT22;3735;50.136;11.062;2023-06-22T04:59:58;22.00;99.90
7388;DHT22;3735;50.136;11.062;2023-06-22T05:02:36;22.50;99.90
7388;DHT22;3735;50.136;11.062;2023-06-22T05:05:03;23.00;99.90
7388;DHT22;3735;50.136;11.062;2023-06-22T05:07:35;23.40;99.90
7388;DHT22;3735;50.136;11.062;2023-06-22T05:10:03;23.90;99.90
7388;DHT22;3735;50.136;11.062;2023-06-22T05:12:30;24.40;99.90
7388;DHT22;3735;50.136;11.062;2023-06-22T05:14:56;24.80;99.90
7388;DHT22;3735;50.136;11.062;2023-06-22T05:17:22;25.10;99.90
7388;DHT22;3735;50.136;11.062;2023-06-22T05:19:48;25.50;99.90
7388;DHT22;3735;50.136;11.062;2023-06-22T05:22:15;25.70;99.90
7388;DHT22;3735;50.136;11.062;2023-06-22T05:24:42;26.10;99.90
7388;DHT22;3735;50.136;11.062;2023-06-22T05:27:08;26.30;99.90
7388;DHT22;3735;50.136;11.062;2023-06-22T05:29:36;26.40;99.90
7388;DHT22;3735;50.136;11.062;2023-06-22T05:32:02;26.50;99.90
7388;DHT22;3735;50.136;11.062;2023-06-22T05:34:29;26.50;99.90
7388;DHT22;3735;50.136;11.062;2023-06-22T05:36:54;26.30;99.90
7388;DHT22;3735;50.136;11.062;2023-06-22T05:39:20;26.10;99.90
7388;DHT22;3735;50.136;11.062;2023-06-22T05:41:46;25.90;99.90
7388;DHT22;3735;50.136;11.062;2023-06-22T05:44:12;25.60;99.90
7388;DHT22;3735;50.136;11.062;2023-06-22T05:46:42;25.30;99.90
7388;DHT22;3735;50.136;11.062;2023-06-22T05:49:14;25.40;99.90
7388;DHT22;3735;50.136;11.062;2023-06-22T05:51:40;25.80;99.90
7388;DHT22;3735;50.136;11.062;2023-06-22T05:54:06;26.10;99.90
7388;DHT22;3735;50.136;11.062;2023-06-22T05:56:34;26.50;99.90
7388;DHT22;3735;50.136;11.062;2023-06-22T05:59:00;26.80;99.90
7388;DHT22;3735;50.136;11.062;2023-06-22T06:01:25;26.80;99.90
7388;DHT22;3735;50.136;11.062;2023-06-22T06:03:52;27.00;99.90
7388;DHT22;3735;50.136;11.062;2023-06-22T06:06:18;27.60;99.90
7388;DHT22;3735;50.136;11.062;2023-06-22T06:08:48;28.20;99.90
7388;DHT22;3735;50.136;11.062;2023-06-22T06:11:14;28.50;99.90
7388;DHT22;3735;50.136;11.062;2023-06-22T06:13:40;28.90;99.90
7388;DHT22;3735;50.136;11.062;2023-06-22T06:16:06;29.20;99.90
7388;DHT22;3735;50.136;11.062;2023-06-22T06:18:32;29.50;99.90
7388;DHT22;3735;50.136;11.062;2023-06-22T06:20:57;29.80;99.90
7388;DHT22;3735;50.136;11.062;2023-06-22T06:23:23;30.10;99.90
7388;DHT22;3735;50.136;11.062;2023-06-22T06:25:49;30.40;99.90
7388;DHT22;3735;50.136;11.062;2023-06-22T06:28:14;30.70;99.90
7388;DHT22;3735;50.136;11.062;2023-06-22T06:30:40;30.90;99.90
7388;DHT22;3735;50.136;11.062;2023-06-22T06:33:06;31.20;99.90
7388;DHT22;3735;50.136;11.062;2023-06-22T06:35:34;31.40;99.90
7388;DHT22;3735;50.136;11.062;2023-06-22T06:38:00;31.60;99.90
7388;DHT22;3735;50.136;11.062;2023-06-22T06:40:26;31.80;99.90
7388;DHT22;3735;50.136;11.062;2023-06-22T06:42:51;31.90;99.90
7388;DHT22;3735;50.136;11.062;2023-06-22T06:45:21;32.00;99.90
7388;DHT22;3735;50.136;11.062;2023-06-22T06:47:49;32.00;99.90
7388;DHT22;3735;50.136;11.062;2023-06-22T06:50:16;32.00;99.90
7388;DHT22;3735;50.136;11.062;2023-06-22T06:52:42;32.00;99.90
7388;DHT22;3735;50.136;11.062;2023-06-22T06:55:09;32.20;99.90
7388;DHT22;3735;50.136;11.062;2023-06-22T06:57:38;32.50;99.90
7388;DHT22;3735;50.136;11.062;2023-06-22T07:00:06;32.90;99.90
7388;DHT22;3735;50.136;11.062;2023-06-22T07:02:38;33.20;99.90
7388;DHT22;3735;50.136;11.062;2023-06-22T07:05:08;33.20;99.90
7388;DHT22;3735;50.136;11.062;2023-06-22T07:07:34;33.10;99.90
7388;DHT22;3735;50.136;11.062;2023-06-22T07:10:00;33.20;99.90
7388;DHT22;3735;50.136;11.062;2023-06-22T07:12:26;33.20;99.90
7388;DHT22;3735;50.136;11.062;2023-06-22T07:14:53;33.40;99.90
7388;DHT22;3735;50.136;11.062;2023-06-22T07:17:19;33.70;99.90
7388;DHT22;3735;50.136;11.062;2023-06-22T07:19:45;34.10;99.90
7388;DHT22;3735;50.136;11.062;2023-06-22T07:22:11;34.50;99.90
7388;DHT22;3735;50.136;11.062;2023-06-22T07:24:36;34.70;99.90
7388;DHT22;3735;50.136;11.062;2023-06-22T07:27:03;34.70;99.90
7388;DHT22;3735;50.136;11.062;2023-06-22T07:29:30;34.80;99.90
7388;DHT22;3735;50.136;11.062;2023-06-22T07:31:57;35.30;99.90
7388;DHT22;3735;50.136;11.062;2023-06-22T07:34:24;35.20;99.90
7388;DHT22;3735;50.136;11.062;2023-06-22T07:36:50;35.00;99.90
7388;DHT22;3735;50.136;11.062;2023-06-22T07:39:16;35.40;99.90
7388;DHT22;3735;50.136;11.062;2023-06-22T07:41:41;35.60;99.90
7388;DHT22;3735;50.136;11.062;2023-06-22T07:44:07;35.80;99.90
7388;DHT22;3735;50.136;11.062;2023-06-22T07:46:33;36.50;99.90
7388;DHT22;3735;50.136;11.062;2023-06-22T07:48:59;36.70;99.90
7388;DHT22;3735;50.136;11.062;2023-06-22T07:51:26;37.10;99.90
7388;DHT22;3735;50.136;11.062;2023-06-22T07:53:52;37.30;99.90
7388;DHT22;3735;50.136;11.062;2023-06-22T07:56:18;37.00;99.90
7388;DHT22;3735;50.136;11.062;2023-06-22T07:58:46;36.80;99.90
7388;DHT22;3735;50.136;11.062;2023-06-22T08:01:15;36.90;99.90
7388;DHT22;3735;50.136;11.062;2023-06-22T08:03:42;37.20;99.90
7388;DHT22;3735;50.136;11.062;2023-06-22T08:06:09;37.50;99.90
7388;DHT22;3735;50.136;11.062;2023-06-22T08:08:38;37.60;99.90
7388;DHT22;3735;50.136;11.062;2023-06-22T08:11:04;37.50;99.90
7388;DHT22;3735;50.136;11.062;2023-06-22T08:13:31;37.70;99.90
7388;DHT22;3735;50.136;11.062;2023-06-22T08:15:57;38.20;99.90
7388;DHT22;3735;50.136;11.062;2023-06-22T08:18:23;38.20;99.90
7388;DHT22;3735;50.136;11.062;2023-06-22T08:20:48;38.10;99.90
7388;DHT22;3735;50.136;11.062;2023-06-22T08:23:15;37.90;99.90
7388;DHT22;3735;50.136;11.062;2023-06-22T08:25:40;38.20;99.90
7388;DHT22;3735;50.136;11.062;2023-06-22T08:28:06;38.40;99.90
7388;DHT22;3735;50.136;11.062;2023-06-22T08:30:32;38.80;99.90
7388;DHT22;3735;50.136;11.062;2023-06-22T08:32:58;39.10;99.90
7388;DHT22;3735;50.136;11.062;2023-06-22T08:35:24;39.20;99.90
7388;DHT22;3735;50.136;11.062;2023-06-22T08:37:50;39.00;99.90
7388;DHT22;3735;50.136;11.062;2023-06-22T08:40:20;38.50;99.90
7388;DHT22;3735;50.136;11.062;2023-06-22T08:42:46;38.90;99.90
7388;DHT22;3735;50.136;11.062;2023-06-22T08:45:13;39.40;99.90
7388;DHT22;3735;50.136;11.062;2023-06-22T08:47:40;39.90;99.90
7388;DHT22;3735;50.136;11.062;2023-06-22T08:50:08;40.00;99.90
7388;DHT22;3735;50.136;11.062;2023-06-22T08:52:35;39.80;99.90
7388;DHT22;3735;50.136;11.062;2023-06-22T08:55:01;39.80;99.90
7388;DHT22;3735;50.136;11.062;2023-06-22T08:57:28;39.90;99.90
7388;DHT22;3735;50.136;11.062;2023-06-22T08:59:54;40.10;99.90
7388;DHT22;3735;50.136;11.062;2023-06-22T09:02:27;40.30;99.90
7388;DHT22;3735;50.136;11.062;2023-06-22T09:05:02;40.20;99.90
7388;DHT22;3735;50.136;11.062;2023-06-22T09:07:28;40.10;99.90
7388;DHT22;3735;50.136;11.062;2023-06-22T09:09:55;40.10;99.90
7388;DHT22;3735;50.136;11.062;2023-06-22T09:12:21;40.30;99.90
7388;DHT22;3735;50.136;11.062;2023-06-22T09:14:51;40.50;99.90
7388;DHT22;3735;50.136;11.062;2023-06-22T09:17:17;40.90;99.90
7388;DHT22;3735;50.136;11.062;2023-06-22T09:19:43;41.20;99.90
7388;DHT22;3735;50.136;11.062;2023-06-22T09:22:09;42.00;99.90
7388;DHT22;3735;50.136;11.062;2023-06-22T09:24:34;42.20;99.90
7388;DHT22;3735;50.136;11.062;2023-06-22T09:27:00;41.90;99.90
7388;DHT22;3735;50.136;11.062;2023-06-22T09:29:26;41.60;99.90
7388;DHT22;3735;50.136;11.062;2023-06-22T09:31:52;42.00;99.90
7388;DHT22;3735;50.136;11.062;2023-06-22T09:34:21;42.30;99.90
7388;DHT22;3735;50.136;11.062;2023-06-22T09:36:47;42.70;99.90
7388;DHT22;3735;50.136;11.062;2023-06-22T09:39:13;43.10;99.90
7388;DHT22;3735;50.136;11.062;2023-06-22T09:41:39;43.00;99.90
7388;DHT22;3735;50.136;11.062;2023-06-22T09:44:04;42.60;99.90
7388;DHT22;3735;50.136;11.062;2023-06-22T09:46:30;42.80;99.90
7388;DHT22;3735;50.136;11.062;2023-06-22T09:48:56;42.90;99.90
7388;DHT22;3735;50.136;11.062;2023-06-22T09:51:22;42.90;99.90
7388;DHT22;3735;50.136;11.062;2023-06-22T09:53:49;42.60;99.90
7388;DHT22;3735;50.136;11.062;2023-06-22T09:56:16;42.30;99.90
7388;DHT22;3735;50.136;11.062;2023-06-22T09:58:44;42.20;99.90
7388;DHT22;3735;50.136;11.062;2023-06-22T10:01:11;42.60;99.90
7388;DHT22;3735;50.136;11.062;2023-06-22T10:03:38;43.10;99.90
7388;DHT22;3735;50.136;11.062;2023-06-22T10:06:04;43.40;99.90
7388;DHT22;3735;50.136;11.062;2023-06-22T10:08:29;43.30;99.90
7388;DHT22;3735;50.136;11.062;2023-06-22T10:10:55;43.70;99.90
7388;DHT22;3735;50.136;11.062;2023-06-22T10:13:21;43.90;99.90
7388;DHT22;3735;50.136;11.062;2023-06-22T10:15:47;44.10;99.90
7388;DHT22;3735;50.136;11.062;2023-06-22T10:18:17;44.10;99.90
7388;DHT22;3735;50.136;11.062;2023-06-22T10:21:03;43.60;99.90
7388;DHT22;3735;50.136;11.062;2023-06-22T10:23:29;42.90;99.90
7388;DHT22;3735;50.136;11.062;2023-06-22T10:25:55;42.90;99.90
7388;DHT22;3735;50.136;11.062;2023-06-22T10:28:23;43.10;99.90
7388;DHT22;3735;50.136;11.062;2023-06-22T10:30:49;42.90;99.90
7388;DHT22;3735;50.136;11.062;2023-06-22T10:33:15;42.80;99.90
7388;DHT22;3735;50.136;11.062;2023-06-22T10:35:40;42.90;99.90
7388;DHT22;3735;50.136;11.062;2023-06-22T10:38:06;43.30;99.90
7388;DHT22;3735;50.136;11.062;2023-06-22T10:40:33;43.70;99.90
7388;DHT22;3735;50.136;11.062;2023-06-22T10:42:59;43.40;99.90
7388;DHT22;3735;50.136;11.062;2023-06-22T10:45:25;43.50;99.90
7388;DHT22;3735;50.136;11.062;2023-06-22T10:47:50;43.60;99.90
7388;DHT22;3735;50.136;11.062;2023-06-22T10:50:17;43.70;99.90
7388;DHT22;3735;50.136;11.062;2023-06-22T10:52:43;43.70;99.90
7388;DHT22;3735;50.136;11.062;2023-06-22T10:55:09;43.60;99.90
7388;DHT22;3735;50.136;11.062;2023-06-22T10:57:35;43.60;99.90
7388;DHT22;3735;50.136;11.062;2023-06-22T11:02:37;43.70;99.90
7388;DHT22;3735;50.136;11.062;2023-06-22T11:05:03;43.60;99.90
7388;DHT22;3735;50.136;11.062;2023-06-22T11:07:29;43.60;99.90
7388;DHT22;3735;50.136;11.062;2023-06-22T11:09:55;44.00;99.90
7388;DHT22;3735;50.136;11.062;2023-06-22T11:12:28;44.50;99.90
7388;DHT22;3735;50.136;11.062;2023-06-22T11:14:54;44.10;99.90
7388;DHT22;3735;50.136;11.062;2023-06-22T11:17:19;44.20;99.90
7388;DHT22;3735;50.136;11.062;2023-06-22T11:19:45;44.00;99.90
7388;DHT22;3735;50.136;11.062;2023-06-22T11:22:11;44.00;99.90
7388;DHT22;3735;50.136;11.062;2023-06-22T11:24:37;43.80;99.90
7388;DHT22;3735;50.136;11.062;2023-06-22T11:27:03;43.80;99.90
7388;DHT22;3735;50.136;11.062;2023-06-22T11:29:28;44.20;99.90
7388;DHT22;3735;50.136;11.062;2023-06-22T11:31:54;44.60;99.90
7388;DHT22;3735;50.136;11.062;2023-06-22T11:34:20;44.70;99.90
7388;DHT22;3735;50.136;11.062;2023-06-22T11:36:46;44.50;99.90
7388;DHT22;3735;50.136;11.062;2023-06-22T11:39:13;45.00;99.90
7388;DHT22;3735;50.136;11.062;2023-06-22T11:41:40;45.00;99.90
7388;DHT22;3735;50.136;11.062;2023-06-22T11:44:07;45.30;99.90
7388;DHT22;3735;50.136;11.062;2023-06-22T11:46:33;45.70;99.90
7388;DHT22;3735;50.136;11.062;2023-06-22T11:48:58;45.20;99.90
7388;DHT22;3735;50.136;11.062;2023-06-22T11:51:24;44.60;99.90
7388;DHT22;3735;50.136;11.062;2023-06-22T11:53:50;43.80;99.90
7388;DHT22;3735;50.136;11.062;2023-06-22T11:56:16;43.20;99.90
7388;DHT22;3735;50.136;11.062;2023-06-22T11:58:41;43.30;99.90
7388;DHT22;3735;50.136;11.062;2023-06-22T12:01:07;44.00;99.90
7388;DHT22;3735;50.136;11.062;2023-06-22T12:03:33;45.50;99.90
7388;DHT22;3735;50.136;11.062;2023-06-22T12:05:59;45.90;99.90
7388;DHT22;3735;50.136;11.062;2023-06-22T12:08:25;45.40;99.90
7388;DHT22;3735;50.136;11.062;2023-06-22T12:10:51;45.30;99.90
7388;DHT22;3735;50.136;11.062;2023-06-22T12:13:17;45.30;99.90
7388;DHT22;3735;50.136;11.062;2023-06-22T12:15:43;45.10;99.90
7388;DHT22;3735;50.136;11.062;2023-06-22T12:18:09;44.60;99.90
7388;DHT22;3735;50.136;11.062;2023-06-22T12:20:34;43.50;99.90
7388;DHT22;3735;50.136;11.062;2023-06-22T12:23:01;42.30;99.90
7388;DHT22;3735;50.136;11.062;2023-06-22T12:25:27;42.10;99.90
7388;DHT22;3735;50.136;11.062;2023-06-22T12:27:52;42.00;99.90
7388;DHT22;3735;50.136;11.062;2023-06-22T12:30:19;42.00;99.90
7388;DHT22;3735;50.136;11.062;2023-06-22T12:32:45;42.00;99.90
7388;DHT22;3735;50.136;11.062;2023-06-22T12:35:10;42.30;99.90
7388;DHT22;3735;50.136;11.062;2023-06-22T12:37:41;42.90;99.90
7388;DHT22;3735;50.136;11.062;2023-06-22T12:40:08;43.30;99.90
7388;DHT22;3735;50.136;11.062;2023-06-22T12:42:35;42.90;99.90
7388;DHT22;3735;50.136;11.062;2023-06-22T12:45:01;42.10;99.90
7388;DHT22;3735;50.136;11.062;2023-06-22T12:47:26;41.30;99.90
7388;DHT22;3735;50.136;11.062;2023-06-22T12:49:52;40.90;99.90
7388;DHT22;3735;50.136;11.062;2023-06-22T12:52:18;40.80;99.90
7388;DHT22;3735;50.136;11.062;2023-06-22T12:54:43;41.30;99.90
7388;DHT22;3735;50.136;11.062;2023-06-22T12:57:09;42.00;99.90
7388;DHT22;3735;50.136;11.062;2023-06-22T12:59:35;43.10;99.90
7388;DHT22;3735;50.136;11.062;2023-06-22T13:02:01;43.90;99.90
7388;DHT22;3735;50.136;11.062;2023-06-22T13:04:26;44.30;99.90
7388;DHT22;3735;50.136;11.062;2023-06-22T13:06:52;44.40;99.90
7388;DHT22;3735;50.136;11.062;2023-06-22T13:09:19;43.70;99.90
7388;DHT22;3735;50.136;11.062;2023-06-22T13:11:45;43.00;99.90
7388;DHT22;3735;50.136;11.062;2023-06-22T13:14:10;42.90;99.90
7388;DHT22;3735;50.136;11.062;2023-06-22T13:16:36;42.80;99.90
7388;DHT22;3735;50.136;11.062;2023-06-22T13:19:02;43.10;99.90
7388;DHT22;3735;50.136;11.062;2023-06-22T13:21:29;43.40;99.90
7388;DHT22;3735;50.136;11.062;2023-06-22T13:23:55;43.60;99.90
7388;DHT22;3735;50.136;11.062;2023-06-22T13:26:21;43.80;99.90
7388;DHT22;3735;50.136;11.062;2023-06-22T13:28:47;43.40;99.90
7388;DHT22;3735;50.136;11.062;2023-06-22T13:31:13;42.50;99.90
7388;DHT22;3735;50.136;11.062;2023-06-22T13:33:39;41.80;99.90
7388;DHT22;3735;50.136;11.062;2023-06-22T13:36:06;41.10;99.90
7388;DHT22;3735;50.136;11.062;2023-06-22T13:38:34;40.40;99.90
7388;DHT22;3735;50.136;11.062;2023-06-22T13:41:04;39.60;99.90
7388;DHT22;3735;50.136;11.062;2023-06-22T13:43:30;38.90;99.90
7388;DHT22;3735;50.136;11.062;2023-06-22T13:45:56;38.50;99.90
7388;DHT22;3735;50.136;11.062;2023-06-22T13:48:22;38.30;99.90
7388;DHT22;3735;50.136;11.062;2023-06-22T13:50:49;38.40;99.90
7388;DHT22;3735;50.136;11.062;2023-06-22T13:53:15;38.90;99.90
7388;DHT22;3735;50.136;11.062;2023-06-22T13:55:40;39.80;99.90
7388;DHT22;3735;50.136;11.062;2023-06-22T13:58:06;40.40;99.90
7388;DHT22;3735;50.136;11.062;2023-06-22T14:00:32;40.70;99.90
7388;DHT22;3735;50.136;11.062;2023-06-22T14:02:58;41.10;99.90
7388;DHT22;3735;50.136;11.062;2023-06-22T14:05:23;41.70;99.90
7388;DHT22;3735;50.136;11.062;2023-06-22T14:07:49;41.90;99.90
7388;DHT22;3735;50.136;11.062;2023-06-22T14:10:15;41.80;99.90
7388;DHT22;3735;50.136;11.062;2023-06-22T14:12:41;41.80;99.90
7388;DHT22;3735;50.136;11.062;2023-06-22T14:15:07;41.30;99.90
7388;DHT22;3735;50.136;11.062;2023-06-22T14:17:33;40.80;99.90
7388;DHT22;3735;50.136;11.062;2023-06-22T14:19:58;40.80;99.90
7388;DHT22;3735;50.136;11.062;2023-06-22T14:22:24;41.10;99.90
7388;DHT22;3735;50.136;11.062;2023-06-22T14:24:51;41.60;99.90
7388;DHT22;3735;50.136;11.062;2023-06-22T14:27:16;41.60;99.90
7388;DHT22;3735;50.136;11.062;2023-06-22T14:29:42;41.30;99.90
7388;DHT22;3735;50.136;11.062;2023-06-22T14:32:09;41.20;99.90
7388;DHT22;3735;50.136;11.062;2023-06-22T14:34:35;41.20;99.90
7388;DHT22;3735;50.136;11.062;2023-06-22T14:37:06;41.10;99.90
7388;DHT22;3735;50.136;11.062;2023-06-22T14:39:32;41.40;99.90
7388;DHT22;3735;50.136;11.062;2023-06-22T14:41:59;41.60;99.90
7388;DHT22;3735;50.136;11.062;2023-06-22T14:44:26;41.90;99.90
7388;DHT22;3735;50.136;11.062;2023-06-22T14:46:54;42.00;99.90
7388;DHT22;3735;50.136;11.062;2023-06-22T14:49:21;42.00;99.90
7388;DHT22;3735;50.136;11.062;2023-06-22T14:51:46;41.70;99.90
7388;DHT22;3735;50.136;11.062;2023-06-22T14:54:12;41.50;99.90
7388;DHT22;3735;50.136;11.062;2023-06-22T14:56:38;41.30;99.90
7388;DHT22;3735;50.136;11.062;2023-06-22T14:59:04;41.40;99.90
7388;DHT22;3735;50.136;11.062;2023-06-22T15:01:29;41.60;99.90
7388;DHT22;3735;50.136;11.062;2023-06-22T15:03:55;42.00;99.90
7388;DHT22;3735;50.136;11.062;2023-06-22T15:06:21;42.30;99.90
7388;DHT22;3735;50.136;11.062;2023-06-22T15:08:47;42.60;99.90
7388;DHT22;3735;50.136;11.062;2023-06-22T15:11:13;43.00;99.90
7388;DHT22;3735;50.136;11.062;2023-06-22T15:13:40;42.90;99.90
7388;DHT22;3735;50.136;11.062;2023-06-22T15:16:07;43.20;99.90
7388;DHT22;3735;50.136;11.062;2023-06-22T15:18:34;43.30;99.90
7388;DHT22;3735;50.136;11.062;2023-06-22T15:21:01;43.30;99.90
7388;DHT22;3735;50.136;11.062;2023-06-22T15:23:29;43.00;99.90
7388;DHT22;3735;50.136;11.062;2023-06-22T15:25:56;42.60;99.90
7388;DHT22;3735;50.136;11.062;2023-06-22T15:28:23;42.40;99.90
7388;DHT22;3735;50.136;11.062;2023-06-22T15:30:49;42.00;99.90
7388;DHT22;3735;50.136;11.062;2023-06-22T15:33:16;41.80;99.90
7388;DHT22;3735;50.136;11.062;2023-06-22T15:35:42;41.40;99.90
7388;DHT22;3735;50.136;11.062;2023-06-22T15:38:08;40.80;99.90
7388;DHT22;3735;50.136;11.062;2023-06-22T15:40:33;40.10;99.90
7388;DHT22;3735;50.136;11.062;2023-06-22T15:42:59;39.30;99.90
7388;DHT22;3735;50.136;11.062;2023-06-22T15:45:25;38.50;99.90
7388;DHT22;3735;50.136;11.062;2023-06-22T15:47:51;38.00;99.90
7388;DHT22;3735;50.136;11.062;2023-06-22T15:50:17;37.60;99.90
7388;DHT22;3735;50.136;11.062;2023-06-22T15:52:43;37.40;99.90
7388;DHT22;3735;50.136;11.062;2023-06-22T15:55:16;37.30;99.90